Cambridge, Illinois
Current Conditions -  °F | °C
As of 8:28 AM on Thursday 27 Nov 2014 (Local Time) from KMLI Reporting Station
Light Snow Light Snow  
Wind Chill:   Ceiling: 2800
Heat Index: 22°   Visibility: 2mi
Dew Point: 16°   Wind: 16mph
Humidity: 78%   Direction: 310°NW
Pressure: 30.41"   Gusts: NA
Location:  41.3°N, 90.19°W
Report Text: KMLI 271428Z 31014KT 2SM -SN SCT014 BKN028 OVC042 M06/M09 A3041 RMK AO2 P0000 T10561089 $
Loading
Personal Weather Stations






























Interactive Weather Map New forecast layout! Learn more

10-Day Weather Forecast

Advertisements
Track Severe Weather on mobile